sensor_id;sensor_type;location;lat;lon;timestamp;temperature;humidity
55777;DHT22;54079;44.540;18.784;2023-02-22T00:01:12;9.30;70.40
55777;DHT22;54079;44.540;18.784;2023-02-22T00:04:01;9.30;70.50
55777;DHT22;54079;44.540;18.784;2023-02-22T00:06:28;9.20;70.70
55777;DHT22;54079;44.540;18.784;2023-02-22T00:08:56;9.20;71.00
55777;DHT22;54079;44.540;18.784;2023-02-22T00:11:22;9.20;70.80
55777;DHT22;54079;44.540;18.784;2023-02-22T00:13:49;9.20;71.00
55777;DHT22;54079;44.540;18.784;2023-02-22T00:16:25;9.20;70.50
55777;DHT22;54079;44.540;18.784;2023-02-22T00:18:51;9.20;71.20
55777;DHT22;54079;44.540;18.784;2023-02-22T00:21:18;9.20;70.50
55777;DHT22;54079;44.540;18.784;2023-02-22T00:23:46;9.20;70.70
55777;DHT22;54079;44.540;18.784;2023-02-22T00:26:17;9.20;70.60
55777;DHT22;54079;44.540;18.784;2023-02-22T00:28:46;9.30;70.60
55777;DHT22;54079;44.540;18.784;2023-02-22T00:31:12;9.30;70.60
55777;DHT22;54079;44.540;18.784;2023-02-22T00:33:39;9.20;70.90
55777;DHT22;54079;44.540;18.784;2023-02-22T00:36:06;9.20;71.40
55777;DHT22;54079;44.540;18.784;2023-02-22T00:38:33;9.20;71.10
55777;DHT22;54079;44.540;18.784;2023-02-22T00:40:58;9.10;70.90
55777;DHT22;54079;44.540;18.784;2023-02-22T00:43:24;9.30;70.50
55777;DHT22;54079;44.540;18.784;2023-02-22T00:45:50;9.20;70.90
55777;DHT22;54079;44.540;18.784;2023-02-22T00:48:18;9.20;71.20
55777;DHT22;54079;44.540;18.784;2023-02-22T00:50:45;9.20;71.00
55777;DHT22;54079;44.540;18.784;2023-02-22T00:53:13;9.10;70.70
55777;DHT22;54079;44.540;18.784;2023-02-22T00:55:40;9.20;70.80
55777;DHT22;54079;44.540;18.784;2023-02-22T00:58:06;9.20;70.70
55777;DHT22;54079;44.540;18.784;2023-02-22T01:00:38;9.20;71.10
55777;DHT22;54079;44.540;18.784;2023-02-22T01:03:06;9.10;70.90
55777;DHT22;54079;44.540;18.784;2023-02-22T01:05:33;9.00;71.50
55777;DHT22;54079;44.540;18.784;2023-02-22T01:08:00;8.90;71.70
55777;DHT22;54079;44.540;18.784;2023-02-22T01:10:28;8.80;72.20
55777;DHT22;54079;44.540;18.784;2023-02-22T01:12:55;8.80;72.20
55777;DHT22;54079;44.540;18.784;2023-02-22T01:15:24;8.70;72.10
55777;DHT22;54079;44.540;18.784;2023-02-22T01:17:51;8.80;71.90
55777;DHT22;54079;44.540;18.784;2023-02-22T01:20:19;8.80;71.70
55777;DHT22;54079;44.540;18.784;2023-02-22T01:22:49;8.80;72.30
55777;DHT22;54079;44.540;18.784;2023-02-22T01:25:18;8.80;72.10
55777;DHT22;54079;44.540;18.784;2023-02-22T01:27:44;8.80;72.30
55777;DHT22;54079;44.540;18.784;2023-02-22T01:30:12;8.80;72.10
55777;DHT22;54079;44.540;18.784;2023-02-22T01:32:40;8.70;72.40
55777;DHT22;54079;44.540;18.784;2023-02-22T01:35:10;8.70;72.40
55777;DHT22;54079;44.540;18.784;2023-02-22T01:37:38;8.70;72.70
55777;DHT22;54079;44.540;18.784;2023-02-22T01:40:06;8.60;72.60
55777;DHT22;54079;44.540;18.784;2023-02-22T01:42:32;8.60;73.00
55777;DHT22;54079;44.540;18.784;2023-02-22T01:50:23;8.70;73.00
55777;DHT22;54079;44.540;18.784;2023-02-22T01:52:49;8.70;73.20
55777;DHT22;54079;44.540;18.784;2023-02-22T01:55:16;8.60;73.30
55777;DHT22;54079;44.540;18.784;2023-02-22T01:57:43;8.60;73.40
55777;DHT22;54079;44.540;18.784;2023-02-22T02:00:13;8.60;73.80
55777;DHT22;54079;44.540;18.784;2023-02-22T02:02:47;8.50;73.70
55777;DHT22;54079;44.540;18.784;2023-02-22T02:05:14;8.50;73.80
55777;DHT22;54079;44.540;18.784;2023-02-22T02:07:40;8.50;74.10
55777;DHT22;54079;44.540;18.784;2023-02-22T02:10:09;8.40;73.90
55777;DHT22;54079;44.540;18.784;2023-02-22T02:12:45;8.50;74.10
55777;DHT22;54079;44.540;18.784;2023-02-22T02:17:47;8.50;73.70
55777;DHT22;54079;44.540;18.784;2023-02-22T02:20:24;8.50;74.10
55777;DHT22;54079;44.540;18.784;2023-02-22T02:42:44;8.20;74.60
55777;DHT22;54079;44.540;18.784;2023-02-22T02:45:18;8.20;75.00
55777;DHT22;54079;44.540;18.784;2023-02-22T02:47:51;8.10;74.60
55777;DHT22;54079;44.540;18.784;2023-02-22T02:50:28;8.00;75.00
55777;DHT22;54079;44.540;18.784;2023-02-22T02:53:00;8.00;75.30
55777;DHT22;54079;44.540;18.784;2023-02-22T02:55:29;8.00;75.60
55777;DHT22;54079;44.540;18.784;2023-02-22T02:57:56;7.90;75.90
55777;DHT22;54079;44.540;18.784;2023-02-22T03:00:28;7.90;76.30
55777;DHT22;54079;44.540;18.784;2023-02-22T03:08:25;7.90;76.20
55777;DHT22;54079;44.540;18.784;2023-02-22T03:21:53;7.80;76.70
55777;DHT22;54079;44.540;18.784;2023-02-22T03:24:36;7.80;77.00
55777;DHT22;54079;44.540;18.784;2023-02-22T03:27:06;7.80;77.30
55777;DHT22;54079;44.540;18.784;2023-02-22T03:29:37;7.80;77.10
55777;DHT22;54079;44.540;18.784;2023-02-22T03:32:09;7.90;76.90
55777;DHT22;54079;44.540;18.784;2023-02-22T03:34:51;7.80;76.70
55777;DHT22;54079;44.540;18.784;2023-02-22T03:37:31;7.90;76.90
55777;DHT22;54079;44.540;18.784;2023-02-22T03:39:59;7.90;77.00
55777;DHT22;54079;44.540;18.784;2023-02-22T03:42:34;7.80;77.20
55777;DHT22;54079;44.540;18.784;2023-02-22T03:45:03;7.80;76.80
55777;DHT22;54079;44.540;18.784;2023-02-22T03:47:54;7.80;76.70
55777;DHT22;54079;44.540;18.784;2023-02-22T03:50:25;7.80;77.20
55777;DHT22;54079;44.540;18.784;2023-02-22T03:52:55;7.80;76.80
55777;DHT22;54079;44.540;18.784;2023-02-22T03:55:24;7.80;76.80
55777;DHT22;54079;44.540;18.784;2023-02-22T03:57:59;7.80;76.70
55777;DHT22;54079;44.540;18.784;2023-02-22T04:00:30;7.70;77.80
55777;DHT22;54079;44.540;18.784;2023-02-22T04:02:57;7.60;77.70
55777;DHT22;54079;44.540;18.784;2023-02-22T04:05:23;7.60;77.90
55777;DHT22;54079;44.540;18.784;2023-02-22T04:07:54;7.60;78.00
55777;DHT22;54079;44.540;18.784;2023-02-22T04:10:21;7.50;78.40
55777;DHT22;54079;44.540;18.784;2023-02-22T04:12:48;7.40;78.60
55777;DHT22;54079;44.540;18.784;2023-02-22T04:15:17;7.50;78.80
55777;DHT22;54079;44.540;18.784;2023-02-22T04:17:44;7.50;79.10
55777;DHT22;54079;44.540;18.784;2023-02-22T04:20:10;7.40;79.40
55777;DHT22;54079;44.540;18.784;2023-02-22T04:22:39;7.30;79.90
55777;DHT22;54079;44.540;18.784;2023-02-22T04:25:06;7.40;80.00
55777;DHT22;54079;44.540;18.784;2023-02-22T04:27:32;7.50;79.50
55777;DHT22;54079;44.540;18.784;2023-02-22T04:29:59;7.50;80.20
55777;DHT22;54079;44.540;18.784;2023-02-22T04:32:25;7.50;79.70
55777;DHT22;54079;44.540;18.784;2023-02-22T04:34:51;7.60;80.00
55777;DHT22;54079;44.540;18.784;2023-02-22T04:37:17;7.60;79.70
55777;DHT22;54079;44.540;18.784;2023-02-22T04:39:43;7.60;78.80
55777;DHT22;54079;44.540;18.784;2023-02-22T04:42:09;7.60;78.70
55777;DHT22;54079;44.540;18.784;2023-02-22T04:44:35;7.40;79.90
55777;DHT22;54079;44.540;18.784;2023-02-22T04:47:01;7.40;80.40
55777;DHT22;54079;44.540;18.784;2023-02-22T04:49:27;7.40;80.40
55777;DHT22;54079;44.540;18.784;2023-02-22T04:51:52;7.40;79.30
55777;DHT22;54079;44.540;18.784;2023-02-22T04:54:18;7.40;79.10
55777;DHT22;54079;44.540;18.784;2023-02-22T04:56:44;7.30;79.80
55777;DHT22;54079;44.540;18.784;2023-02-22T04:59:10;7.40;80.20
55777;DHT22;54079;44.540;18.784;2023-02-22T05:01:38;7.30;80.30
55777;DHT22;54079;44.540;18.784;2023-02-22T05:04:05;7.30;81.00
55777;DHT22;54079;44.540;18.784;2023-02-22T05:06:31;7.30;81.30
55777;DHT22;54079;44.540;18.784;2023-02-22T05:08:57;7.20;83.00
55777;DHT22;54079;44.540;18.784;2023-02-22T05:11:23;7.20;82.30
55777;DHT22;54079;44.540;18.784;2023-02-22T05:13:49;7.30;81.90
55777;DHT22;54079;44.540;18.784;2023-02-22T05:16:15;7.30;81.30
55777;DHT22;54079;44.540;18.784;2023-02-22T05:18:42;7.20;82.90
55777;DHT22;54079;44.540;18.784;2023-02-22T05:21:07;7.10;82.90
55777;DHT22;54079;44.540;18.784;2023-02-22T05:23:33;7.10;82.50
55777;DHT22;54079;44.540;18.784;2023-02-22T05:25:59;7.20;83.10
55777;DHT22;54079;44.540;18.784;2023-02-22T05:28:25;7.20;83.20
55777;DHT22;54079;44.540;18.784;2023-02-22T05:30:51;7.20;82.80
55777;DHT22;54079;44.540;18.784;2023-02-22T05:33:17;7.20;82.60
55777;DHT22;54079;44.540;18.784;2023-02-22T05:35:44;7.10;83.20
55777;DHT22;54079;44.540;18.784;2023-02-22T05:38:14;7.10;83.70
55777;DHT22;54079;44.540;18.784;2023-02-22T05:40:40;7.10;84.10
55777;DHT22;54079;44.540;18.784;2023-02-22T05:43:07;7.20;83.40
55777;DHT22;54079;44.540;18.784;2023-02-22T05:45:33;7.20;84.00
55777;DHT22;54079;44.540;18.784;2023-02-22T05:48:00;7.20;83.10
55777;DHT22;54079;44.540;18.784;2023-02-22T05:50:26;7.30;84.00
55777;DHT22;54079;44.540;18.784;2023-02-22T05:52:53;7.10;84.70
55777;DHT22;54079;44.540;18.784;2023-02-22T05:55:21;7.20;84.40
55777;DHT22;54079;44.540;18.784;2023-02-22T05:57:48;7.20;84.50
55777;DHT22;54079;44.540;18.784;2023-02-22T06:00:26;7.20;85.10
55777;DHT22;54079;44.540;18.784;2023-02-22T06:03:01;7.20;85.40
55777;DHT22;54079;44.540;18.784;2023-02-22T06:05:28;7.30;85.70
55777;DHT22;54079;44.540;18.784;2023-02-22T06:07:54;7.40;84.50
55777;DHT22;54079;44.540;18.784;2023-02-22T06:10:21;7.50;83.90
55777;DHT22;54079;44.540;18.784;2023-02-22T06:12:48;7.50;83.90
55777;DHT22;54079;44.540;18.784;2023-02-22T06:15:15;7.70;83.30
55777;DHT22;54079;44.540;18.784;2023-02-22T06:17:42;7.80;82.70
55777;DHT22;54079;44.540;18.784;2023-02-22T06:20:10;8.00;82.30
55777;DHT22;54079;44.540;18.784;2023-02-22T06:22:36;8.20;82.00
55777;DHT22;54079;44.540;18.784;2023-02-22T06:25:03;8.30;82.10
55777;DHT22;54079;44.540;18.784;2023-02-22T06:27:30;8.40;81.40
55777;DHT22;54079;44.540;18.784;2023-02-22T06:29:58;8.50;81.00
55777;DHT22;54079;44.540;18.784;2023-02-22T06:32:24;8.60;80.70
55777;DHT22;54079;44.540;18.784;2023-02-22T06:34:50;8.70;80.30
55777;DHT22;54079;44.540;18.784;2023-02-22T06:37:16;8.80;79.70
55777;DHT22;54079;44.540;18.784;2023-02-22T06:39:41;8.80;79.30
55777;DHT22;54079;44.540;18.784;2023-02-22T06:42:08;8.90;78.80
55777;DHT22;54079;44.540;18.784;2023-02-22T06:44:34;9.00;78.40
55777;DHT22;54079;44.540;18.784;2023-02-22T06:47:00;8.90;78.60
55777;DHT22;54079;44.540;18.784;2023-02-22T06:49:26;9.10;78.80
55777;DHT22;54079;44.540;18.784;2023-02-22T06:51:53;9.20;78.00
55777;DHT22;54079;44.540;18.784;2023-02-22T06:54:20;9.20;78.20
55777;DHT22;54079;44.540;18.784;2023-02-22T06:56:46;9.20;77.80
55777;DHT22;54079;44.540;18.784;2023-02-22T06:59:14;9.30;77.70
55777;DHT22;54079;44.540;18.784;2023-02-22T07:01:41;9.30;78.10
55777;DHT22;54079;44.540;18.784;2023-02-22T07:04:07;9.60;77.80
55777;DHT22;54079;44.540;18.784;2023-02-22T07:06:33;9.60;76.20
55777;DHT22;54079;44.540;18.784;2023-02-22T07:09:01;9.70;76.50
55777;DHT22;54079;44.540;18.784;2023-02-22T07:11:27;9.90;76.70
55777;DHT22;54079;44.540;18.784;2023-02-22T07:13:53;10.20;76.20
55777;DHT22;54079;44.540;18.784;2023-02-22T07:16:20;10.70;75.70
55777;DHT22;54079;44.540;18.784;2023-02-22T07:18:46;11.90;73.40
55777;DHT22;54079;44.540;18.784;2023-02-22T07:21:12;13.30;70.00
55777;DHT22;54079;44.540;18.784;2023-02-22T07:23:38;14.20;66.70
55777;DHT22;54079;44.540;18.784;2023-02-22T07:26:04;15.20;63.00
55777;DHT22;54079;44.540;18.784;2023-02-22T07:28:30;15.90;61.10
55777;DHT22;54079;44.540;18.784;2023-02-22T07:30:56;16.20;59.20
55777;DHT22;54079;44.540;18.784;2023-02-22T07:33:22;16.70;58.50
55777;DHT22;54079;44.540;18.784;2023-02-22T07:35:49;17.40;56.80
55777;DHT22;54079;44.540;18.784;2023-02-22T07:38:17;17.90;55.60
55777;DHT22;54079;44.540;18.784;2023-02-22T07:40:43;18.50;55.50
55777;DHT22;54079;44.540;18.784;2023-02-22T07:45:42;20.70;52.20
55777;DHT22;54079;44.540;18.784;2023-02-22T07:48:09;21.20;50.40
55777;DHT22;54079;44.540;18.784;2023-02-22T07:50:37;21.40;50.10
55777;DHT22;54079;44.540;18.784;2023-02-22T07:53:05;21.70;49.70
55777;DHT22;54079;44.540;18.784;2023-02-22T07:55:32;22.20;49.70
55777;DHT22;54079;44.540;18.784;2023-02-22T07:58:01;22.90;48.60
55777;DHT22;54079;44.540;18.784;2023-02-22T08:02:55;24.10;46.10
55777;DHT22;54079;44.540;18.784;2023-02-22T08:05:24;24.50;45.90
55777;DHT22;54079;44.540;18.784;2023-02-22T08:07:50;24.90;45.30
55777;DHT22;54079;44.540;18.784;2023-02-22T08:10:18;25.10;44.80
55777;DHT22;54079;44.540;18.784;2023-02-22T08:12:44;25.40;44.50
55777;DHT22;54079;44.540;18.784;2023-02-22T08:15:20;25.70;44.20
55777;DHT22;54079;44.540;18.784;2023-02-22T08:17:46;26.10;44.10
55777;DHT22;54079;44.540;18.784;2023-02-22T08:20:12;26.50;43.40
55777;DHT22;54079;44.540;18.784;2023-02-22T08:22:39;26.90;43.00
55777;DHT22;54079;44.540;18.784;2023-02-22T08:25:07;27.10;42.80
55777;DHT22;54079;44.540;18.784;2023-02-22T08:27:33;27.40;42.60
55777;DHT22;54079;44.540;18.784;2023-02-22T08:29:59;27.60;42.00
55777;DHT22;54079;44.540;18.784;2023-02-22T08:32:25;27.70;41.30
55777;DHT22;54079;44.540;18.784;2023-02-22T08:34:51;27.50;40.80
55777;DHT22;54079;44.540;18.784;2023-02-22T08:37:18;26.80;41.50
55777;DHT22;54079;44.540;18.784;2023-02-22T08:39:47;26.90;42.50
55777;DHT22;54079;44.540;18.784;2023-02-22T08:42:15;27.30;41.40
55777;DHT22;54079;44.540;18.784;2023-02-22T08:44:41;27.90;41.30
55777;DHT22;54079;44.540;18.784;2023-02-22T08:47:07;28.00;40.50
55777;DHT22;54079;44.540;18.784;2023-02-22T08:49:33;28.20;41.00
55777;DHT22;54079;44.540;18.784;2023-02-22T08:51:59;28.30;40.40
55777;DHT22;54079;44.540;18.784;2023-02-22T08:54:25;27.90;39.80
55777;DHT22;54079;44.540;18.784;2023-02-22T08:56:51;27.40;40.40
55777;DHT22;54079;44.540;18.784;2023-02-22T08:59:17;27.50;40.30
55777;DHT22;54079;44.540;18.784;2023-02-22T09:01:43;27.70;40.70
55777;DHT22;54079;44.540;18.784;2023-02-22T09:04:09;27.60;40.20
55777;DHT22;54079;44.540;18.784;2023-02-22T09:06:35;27.00;40.70
55777;DHT22;54079;44.540;18.784;2023-02-22T09:09:02;27.20;40.90
55777;DHT22;54079;44.540;18.784;2023-02-22T09:11:28;27.70;40.70
55777;DHT22;54079;44.540;18.784;2023-02-22T09:13:54;28.00;40.50
55777;DHT22;54079;44.540;18.784;2023-02-22T09:16:20;28.20;40.10
55777;DHT22;54079;44.540;18.784;2023-02-22T09:18:46;28.20;40.20
55777;DHT22;54079;44.540;18.784;2023-02-22T09:21:12;28.20;41.20
55777;DHT22;54079;44.540;18.784;2023-02-22T09:23:38;28.20;40.30
55777;DHT22;54079;44.540;18.784;2023-02-22T09:26:06;27.90;39.80
55777;DHT22;54079;44.540;18.784;2023-02-22T09:28:34;27.60;40.90
55777;DHT22;54079;44.540;18.784;2023-02-22T09:31:01;27.20;40.40
55777;DHT22;54079;44.540;18.784;2023-02-22T09:33:27;27.10;41.00
55777;DHT22;54079;44.540;18.784;2023-02-22T09:35:53;26.70;41.50
55777;DHT22;54079;44.540;18.784;2023-02-22T09:38:21;26.60;41.30
55777;DHT22;54079;44.540;18.784;2023-02-22T09:51:54;22.50;46.20
55777;DHT22;54079;44.540;18.784;2023-02-22T09:54:24;21.70;48.50
55777;DHT22;54079;44.540;18.784;2023-02-22T09:56:55;21.30;48.50
55777;DHT22;54079;44.540;18.784;2023-02-22T09:59:28;20.80;49.10
55777;DHT22;54079;44.540;18.784;2023-02-22T10:02:20;20.40;49.60
55777;DHT22;54079;44.540;18.784;2023-02-22T10:04:59;19.80;51.50
55777;DHT22;54079;44.540;18.784;2023-02-22T10:08:17;18.80;52.50
55777;DHT22;54079;44.540;18.784;2023-02-22T10:10:21;18.60;54.20
55777;DHT22;54079;44.540;18.784;2023-02-22T10:21:09;18.80;53.60
55777;DHT22;54079;44.540;18.784;2023-02-22T10:23:55;18.80;53.10
55777;DHT22;54079;44.540;18.784;2023-02-22T10:26:31;18.70;53.50
55777;DHT22;54079;44.540;18.784;2023-02-22T10:29:21;18.80;53.90
55777;DHT22;54079;44.540;18.784;2023-02-22T10:31:56;18.70;53.60
55777;DHT22;54079;44.540;18.784;2023-02-22T10:34:25;18.70;54.10
55777;DHT22;54079;44.540;18.784;2023-02-22T10:37:03;18.90;53.80
55777;DHT22;54079;44.540;18.784;2023-02-22T10:39:35;18.80;53.50
55777;DHT22;54079;44.540;18.784;2023-02-22T10:42:06;18.90;54.00
55777;DHT22;54079;44.540;18.784;2023-02-22T10:44:37;18.90;53.10
55777;DHT22;54079;44.540;18.784;2023-02-22T10:47:10;18.90;53.70
55777;DHT22;54079;44.540;18.784;2023-02-22T10:49:46;18.90;53.60
55777;DHT22;54079;44.540;18.784;2023-02-22T10:52:23;18.90;53.90
55777;DHT22;54079;44.540;18.784;2023-02-22T10:54:51;18.80;54.20
55777;DHT22;54079;44.540;18.784;2023-02-22T10:57:32;18.80;53.30
55777;DHT22;54079;44.540;18.784;2023-02-22T11:00:19;18.80;54.40
55777;DHT22;54079;44.540;18.784;2023-02-22T11:03:01;18.90;53.20
55777;DHT22;54079;44.540;18.784;2023-02-22T11:08:14;19.00;53.70
55777;DHT22;54079;44.540;18.784;2023-02-22T11:10:41;19.00;53.20
55777;DHT22;54079;44.540;18.784;2023-02-22T11:13:37;19.00;53.10
55777;DHT22;54079;44.540;18.784;2023-02-22T11:18:49;19.00;53.00
55777;DHT22;54079;44.540;18.784;2023-02-22T11:21:21;19.10;53.90
55777;DHT22;54079;44.540;18.784;2023-02-22T11:23:48;19.20;53.40
55777;DHT22;54079;44.540;18.784;2023-02-22T11:26:17;19.20;53.60
55777;DHT22;54079;44.540;18.784;2023-02-22T11:28:47;19.30;53.20
55777;DHT22;54079;44.540;18.784;2023-02-22T11:31:26;19.30;53.50
55777;DHT22;54079;44.540;18.784;2023-02-22T11:34:00;19.30;53.00
55777;DHT22;54079;44.540;18.784;2023-02-22T11:38:56;19.40;52.90
55777;DHT22;54079;44.540;18.784;2023-02-22T11:41:32;19.40;53.20
55777;DHT22;54079;44.540;18.784;2023-02-22T11:44:23;19.30;52.90
55777;DHT22;54079;44.540;18.784;2023-02-22T11:46:50;19.30;53.10
55777;DHT22;54079;44.540;18.784;2023-02-22T11:49:16;19.30;53.60
55777;DHT22;54079;44.540;18.784;2023-02-22T11:57:39;19.40;52.70
55777;DHT22;54079;44.540;18.784;2023-02-22T12:12:07;19.20;53.50
55777;DHT22;54079;44.540;18.784;2023-02-22T12:19:40;19.40;53.00
55777;DHT22;54079;44.540;18.784;2023-02-22T12:22:31;19.40;53.50
55777;DHT22;54079;44.540;18.784;2023-02-22T12:25:26;19.40;52.40
55777;DHT22;54079;44.540;18.784;2023-02-22T12:28:20;19.40;53.10
55777;DHT22;54079;44.540;18.784;2023-02-22T12:30:55;19.50;52.90
55777;DHT22;54079;44.540;18.784;2023-02-22T12:33:26;19.50;52.60
55777;DHT22;54079;44.540;18.784;2023-02-22T12:35:57;19.50;52.80
55777;DHT22;54079;44.540;18.784;2023-02-22T12:38:32;19.70;52.80
55777;DHT22;54079;44.540;18.784;2023-02-22T12:41:06;19.70;52.80
55777;DHT22;54079;44.540;18.784;2023-02-22T12:43:45;19.80;52.10
55777;DHT22;54079;44.540;18.784;2023-02-22T12:46:19;19.80;52.30
55777;DHT22;54079;44.540;18.784;2023-02-22T12:49:11;19.80;52.00
55777;DHT22;54079;44.540;18.784;2023-02-22T12:57:36;19.80;51.80
55777;DHT22;54079;44.540;18.784;2023-02-22T13:03:29;19.60;51.70
55777;DHT22;54079;44.540;18.784;2023-02-22T13:16:50;20.10;51.20
55777;DHT22;54079;44.540;18.784;2023-02-22T13:19:36;20.30;51.30
55777;DHT22;54079;44.540;18.784;2023-02-22T13:27:42;20.20;51.60
55777;DHT22;54079;44.540;18.784;2023-02-22T13:30:39;20.30;52.10
55777;DHT22;54079;44.540;18.784;2023-02-22T13:33:13;20.10;51.60
55777;DHT22;54079;44.540;18.784;2023-02-22T13:41:06;20.20;51.90
55777;DHT22;54079;44.540;18.784;2023-02-22T13:54:18;19.90;52.30
55777;DHT22;54079;44.540;18.784;2023-02-22T13:56:47;19.90;52.70
55777;DHT22;54079;44.540;18.784;2023-02-22T13:59:34;20.00;52.60
55777;DHT22;54079;44.540;18.784;2023-02-22T14:02:02;19.90;52.70
55777;DHT22;54079;44.540;18.784;2023-02-22T14:09:55;19.80;52.80
55777;DHT22;54079;44.540;18.784;2023-02-22T14:17:45;19.50;53.20
55777;DHT22;54079;44.540;18.784;2023-02-22T14:22:42;19.60;53.30
55777;DHT22;54079;44.540;18.784;2023-02-22T14:25:34;19.40;53.40
55777;DHT22;54079;44.540;18.784;2023-02-22T14:28:03;19.30;53.60
55777;DHT22;54079;44.540;18.784;2023-02-22T14:30:32;19.20;54.00
55777;DHT22;54079;44.540;18.784;2023-02-22T14:32:59;19.20;54.10
55777;DHT22;54079;44.540;18.784;2023-02-22T14:35:35;19.00;53.90
55777;DHT22;54079;44.540;18.784;2023-02-22T14:38:04;18.90;54.20
55777;DHT22;54079;44.540;18.784;2023-02-22T14:40:33;18.90;54.20
55777;DHT22;54079;44.540;18.784;2023-02-22T14:43:15;18.80;54.30
55777;DHT22;54079;44.540;18.784;2023-02-22T14:45:55;18.80;54.60
55777;DHT22;54079;44.540;18.784;2023-02-22T14:48:30;18.60;54.80
55777;DHT22;54079;44.540;18.784;2023-02-22T14:51:22;18.60;55.50
55777;DHT22;54079;44.540;18.784;2023-02-22T14:54:14;18.50;54.90
55777;DHT22;54079;44.540;18.784;2023-02-22T14:59:49;18.20;55.50
55777;DHT22;54079;44.540;18.784;2023-02-22T15:02:18;18.20;55.70
55777;DHT22;54079;44.540;18.784;2023-02-22T15:04:53;18.20;55.40
55777;DHT22;54079;44.540;18.784;2023-02-22T15:07:22;18.10;55.50
55777;DHT22;54079;44.540;18.784;2023-02-22T15:10:16;18.00;55.70
55777;DHT22;54079;44.540;18.784;2023-02-22T15:13:03;17.90;55.90
55777;DHT22;54079;44.540;18.784;2023-02-22T15:15:43;17.70;56.10
55777;DHT22;54079;44.540;18.784;2023-02-22T15:21:08;17.60;56.50
55777;DHT22;54079;44.540;18.784;2023-02-22T15:26:06;17.40;57.00
55777;DHT22;54079;44.540;18.784;2023-02-22T15:28:33;17.20;57.10
55777;DHT22;54079;44.540;18.784;2023-02-22T15:31:21;17.10;57.60
55777;DHT22;54079;44.540;18.784;2023-02-22T15:33:50;16.90;57.70
55777;DHT22;54079;44.540;18.784;2023-02-22T15:36:21;16.80;58.10
55777;DHT22;54079;44.540;18.784;2023-02-22T15:38:51;16.70;58.30
55777;DHT22;54079;44.540;18.784;2023-02-22T15:41:29;16.50;58.50
55777;DHT22;54079;44.540;18.784;2023-02-22T15:43:57;16.50;58.80
55777;DHT22;54079;44.540;18.784;2023-02-22T15:46:24;16.40;59.00
55777;DHT22;54079;44.540;18.784;2023-02-22T15:51:41;16.20;59.50
55777;DHT22;54079;44.540;18.784;2023-02-22T15:54:11;16.20;59.90
55777;DHT22;54079;44.540;18.784;2023-02-22T15:56:47;16.00;60.10
55777;DHT22;54079;44.540;18.784;2023-02-22T15:59:17;16.00;60.40
55777;DHT22;54079;44.540;18.784;2023-02-22T16:01:46;15.90;60.30
55777;DHT22;54079;44.540;18.784;2023-02-22T16:04:17;15.80;60.30
55777;DHT22;54079;44.540;18.784;2023-02-22T16:06:44;15.60;60.60
55777;DHT22;54079;44.540;18.784;2023-02-22T16:09:18;15.60;60.90
55777;DHT22;54079;44.540;18.784;2023-02-22T16:12:06;15.60;61.10
55777;DHT22;54079;44.540;18.784;2023-02-22T16:17:26;15.30;61.70
55777;DHT22;54079;44.540;18.784;2023-02-22T16:22:40;15.10;61.70
55777;DHT22;54079;44.540;18.784;2023-02-22T16:25:22;15.10;61.90
55777;DHT22;54079;44.540;18.784;2023-02-22T16:27:56;15.10;62.10
55777;DHT22;54079;44.540;18.784;2023-02-22T16:30:30;15.10;62.70
55777;DHT22;54079;44.540;18.784;2023-02-22T16:32:57;15.00;62.20
55777;DHT22;54079;44.540;18.784;2023-02-22T16:35:26;15.00;62.60
55777;DHT22;54079;44.540;18.784;2023-02-22T16:38:02;14.90;62.50
55777;DHT22;54079;44.540;18.784;2023-02-22T16:40:37;14.80;62.70
55777;DHT22;54079;44.540;18.784;2023-02-22T16:43:11;14.70;63.00
55777;DHT22;54079;44.540;18.784;2023-02-22T16:45:39;14.60;63.20
55777;DHT22;54079;44.540;18.784;2023-02-22T16:48:19;14.40;63.40
55777;DHT22;54079;44.540;18.784;2023-02-22T16:50:46;14.40;63.60
55777;DHT22;54079;44.540;18.784;2023-02-22T16:53:15;14.30;63.80
55777;DHT22;54079;44.540;18.784;2023-02-22T16:55:48;14.20;64.00
55777;DHT22;54079;44.540;18.784;2023-02-22T16:58:16;14.20;64.10
55777;DHT22;54079;44.540;18.784;2023-02-22T17:00:43;14.10;64.30
55777;DHT22;54079;44.540;18.784;2023-02-22T17:03:14;14.00;64.60
55777;DHT22;54079;44.540;18.784;2023-02-22T17:05:41;14.00;64.60
55777;DHT22;54079;44.540;18.784;2023-02-22T17:08:07;13.90;64.80
55777;DHT22;54079;44.540;18.784;2023-02-22T17:10:33;13.80;64.90
55777;DHT22;54079;44.540;18.784;2023-02-22T17:13:00;13.90;64.90
55777;DHT22;54079;44.540;18.784;2023-02-22T17:15:29;13.80;64.80
55777;DHT22;54079;44.540;18.784;2023-02-22T17:18:14;13.80;64.80
55777;DHT22;54079;44.540;18.784;2023-02-22T17:20:44;13.70;64.80
55777;DHT22;54079;44.540;18.784;2023-02-22T17:23:10;13.80;64.80
55777;DHT22;54079;44.540;18.784;2023-02-22T17:25:45;13.70;64.80
55777;DHT22;54079;44.540;18.784;2023-02-22T17:28:13;13.70;65.20
55777;DHT22;54079;44.540;18.784;2023-02-22T17:30:39;13.60;65.00
55777;DHT22;54079;44.540;18.784;2023-02-22T17:33:06;13.60;65.00
55777;DHT22;54079;44.540;18.784;2023-02-22T17:35:36;13.60;65.30
55777;DHT22;54079;44.540;18.784;2023-02-22T17:38:02;13.60;65.40
55777;DHT22;54079;44.540;18.784;2023-02-22T17:40:32;13.60;65.40
55777;DHT22;54079;44.540;18.784;2023-02-22T17:42:59;13.50;65.60
55777;DHT22;54079;44.540;18.784;2023-02-22T17:45:26;13.40;65.80
55777;DHT22;54079;44.540;18.784;2023-02-22T17:47:53;13.40;65.80
55777;DHT22;54079;44.540;18.784;2023-02-22T17:50:20;13.50;66.00
55777;DHT22;54079;44.540;18.784;2023-02-22T17:52:49;13.40;66.00
55777;DHT22;54079;44.540;18.784;2023-02-22T17:55:19;13.30;66.40
55777;DHT22;54079;44.540;18.784;2023-02-22T17:57:46;13.20;66.70
55777;DHT22;54079;44.540;18.784;2023-02-22T18:00:16;13.30;66.90
55777;DHT22;54079;44.540;18.784;2023-02-22T18:02:49;13.30;66.90
55777;DHT22;54079;44.540;18.784;2023-02-22T18:05:16;13.20;66.90
55777;DHT22;54079;44.540;18.784;2023-02-22T18:07:44;13.20;66.90
55777;DHT22;54079;44.540;18.784;2023-02-22T18:10:10;13.10;67.20
55777;DHT22;54079;44.540;18.784;2023-02-22T18:12:37;13.00;67.50
55777;DHT22;54079;44.540;18.784;2023-02-22T18:15:04;13.00;67.40
55777;DHT22;54079;44.540;18.784;2023-02-22T18:17:31;13.00;67.50
55777;DHT22;54079;44.540;18.784;2023-02-22T18:19:57;12.90;67.80
55777;DHT22;54079;44.540;18.784;2023-02-22T18:22:23;12.80;68.00
55777;DHT22;54079;44.540;18.784;2023-02-22T18:24:49;12.80;68.00
55777;DHT22;54079;44.540;18.784;2023-02-22T18:27:15;12.80;68.10
55777;DHT22;54079;44.540;18.784;2023-02-22T18:29:41;12.80;68.20
55777;DHT22;54079;44.540;18.784;2023-02-22T18:32:07;12.70;68.30